createdAt,value
2018-08-20T12:43:48.411Z,2.90
2018-08-20T12:46:19.741Z,2.33
2018-08-20T12:48:49.904Z,2.62
2018-08-20T12:51:18.475Z,1.97
2018-08-20T12:53:46.811Z,3.10
2018-08-20T12:56:15.104Z,3.07
2018-08-20T12:58:49.337Z,1.93
2018-08-20T13:01:17.916Z,0.60
2018-08-20T13:03:46.853Z,2.03
2018-08-20T13:06:15.154Z,1.47
2018-08-20T13:08:43.923Z,1.80
2018-08-20T13:11:12.234Z,1.13
2018-08-20T13:13:40.596Z,2.67
2018-08-20T13:16:09.104Z,1.63
2018-08-20T13:18:37.198Z,3.90
2018-08-20T13:21:05.800Z,2.53
2018-08-20T13:23:34.238Z,1.40
2018-08-20T13:26:02.532Z,2.37
2018-08-20T13:28:30.829Z,2.52
2018-08-20T13:30:59.142Z,2.53
2018-08-20T13:33:27.446Z,1.87
2018-08-20T13:35:55.747Z,2.17
2018-08-20T13:38:24.058Z,1.32
2018-08-20T13:40:52.370Z,1.70
2018-08-20T13:43:20.732Z,2.53
2018-08-20T13:45:49.010Z,2.23
2018-08-20T13:48:17.347Z,1.73
2018-08-20T13:50:45.651Z,2.70
2018-08-20T13:53:13.948Z,1.67
2018-08-20T13:55:42.283Z,1.43
2018-08-20T13:58:10.571Z,1.27
2018-08-20T14:00:38.857Z,1.20
2018-08-20T14:03:07.169Z,1.47
2018-08-20T14:05:35.453Z,2.17
2018-08-20T14:08:03.800Z,2.00
2018-08-20T14:10:32.093Z,1.60
2018-08-20T14:13:00.422Z,1.33
2018-08-20T14:15:28.722Z,1.47
2018-08-20T14:17:57.028Z,2.93
2018-08-20T14:20:25.352Z,1.83
2018-08-20T14:22:53.681Z,2.13
2018-08-20T14:25:21.984Z,1.00
2018-08-20T14:27:50.299Z,2.20
2018-08-20T14:30:18.634Z,1.53
2018-08-20T14:32:47.022Z,1.23
2018-08-20T14:35:15.346Z,2.07
2018-08-20T14:37:43.660Z,1.90
2018-08-20T14:40:15.557Z,1.83
2018-08-20T14:42:44.261Z,4.13
2018-08-20T14:45:14.139Z,2.80
2018-08-20T14:47:43.447Z,2.07
2018-08-20T14:50:14.585Z,1.33
2018-08-20T14:52:43.056Z,3.43
2018-08-20T14:55:11.844Z,2.20
2018-08-20T14:57:40.149Z,4.23
2018-08-20T15:00:10.859Z,1.47
2018-08-20T15:02:39.173Z,1.43
2018-08-20T15:05:07.915Z,1.67
2018-08-20T15:07:36.507Z,3.37
2018-08-20T15:10:06.338Z,2.17
2018-08-20T15:12:34.623Z,1.23
2018-08-20T15:15:03.133Z,3.33
2018-08-20T15:17:31.379Z,1.57
2018-08-20T15:19:59.675Z,1.83
2018-08-20T15:22:27.983Z,2.03
2018-08-20T15:24:56.300Z,3.07
2018-08-20T15:27:24.700Z,3.80
2018-08-20T15:29:53.059Z,2.10
2018-08-20T15:32:21.390Z,3.00
2018-08-20T15:34:49.668Z,2.33
2018-08-20T15:37:17.971Z,1.60
2018-08-20T15:39:46.297Z,1.60
2018-08-20T15:42:14.580Z,3.03
2018-08-20T15:44:42.876Z,1.77
2018-08-20T15:47:11.215Z,1.77
2018-08-20T15:49:39.519Z,1.67
2018-08-20T15:52:07.816Z,2.67
2018-08-20T15:54:36.120Z,1.20
2018-08-20T15:57:04.615Z,2.67
2018-08-20T15:59:32.927Z,2.40
2018-08-20T16:02:01.312Z,2.33
2018-08-20T16:04:29.615Z,3.37
2018-08-20T16:06:57.911Z,2.80
2018-08-20T16:09:26.257Z,1.87
2018-08-20T16:11:54.548Z,1.37
2018-08-20T16:14:22.843Z,2.43
2018-08-20T16:16:51.144Z,1.77
2018-08-20T16:19:19.752Z,1.27
2018-08-20T16:21:48.048Z,2.70
2018-08-20T16:24:16.328Z,2.27
2018-08-20T16:26:44.792Z,2.90
2018-08-20T16:29:13.039Z,2.17
2018-08-20T16:31:41.340Z,2.40
2018-08-20T16:34:09.667Z,2.87
2018-08-20T16:36:38.004Z,2.37
2018-08-20T16:39:09.140Z,4.23
2018-08-20T16:41:37.795Z,2.17
2018-08-20T16:44:06.394Z,2.30
2018-08-20T16:46:34.704Z,2.10
2018-08-20T16:49:03.047Z,3.57
2018-08-20T16:51:31.344Z,2.93
2018-08-20T16:54:00.555Z,1.40
2018-08-20T16:56:29.163Z,2.80
2018-08-20T16:58:57.584Z,2.50
2018-08-20T17:01:25.931Z,1.77
2018-08-20T17:03:54.394Z,3.17
2018-08-20T17:06:22.815Z,2.40
2018-08-20T17:08:51.349Z,2.83
2018-08-20T17:11:19.779Z,2.50
2018-08-20T17:13:48.077Z,1.97
2018-08-20T17:16:16.395Z,1.90
2018-08-20T17:18:44.707Z,2.07
2018-08-20T17:21:13.019Z,1.67
2018-08-20T17:23:41.394Z,2.03
2018-08-20T17:26:09.699Z,1.50
2018-08-20T17:28:38.065Z,1.80
2018-08-20T17:31:12.510Z,1.73
2018-08-20T17:33:40.741Z,2.27
2018-08-20T17:36:09.043Z,1.83
2018-08-20T17:38:37.542Z,2.70
2018-08-20T17:41:08.363Z,2.07
2018-08-20T17:43:36.678Z,2.50
2018-08-20T17:46:05.064Z,2.47
2018-08-20T17:48:34.189Z,2.93
2018-08-20T17:51:02.541Z,1.83
2018-08-20T17:53:42.639Z,2.30
2018-08-20T17:56:11.249Z,1.63
2018-08-20T17:58:39.572Z,3.07
2018-08-20T18:01:12.237Z,1.43
2018-08-20T18:03:57.360Z,1.90
2018-08-20T18:06:53.602Z,2.97
2018-08-20T18:09:29.702Z,2.00
2018-08-20T18:11:58.204Z,3.40
2018-08-20T18:14:26.911Z,2.63
2018-08-20T18:16:55.204Z,2.40
2018-08-20T18:19:23.573Z,1.53
2018-08-20T18:21:51.917Z,2.00
2018-08-20T18:24:21.325Z,4.93
2018-08-20T18:26:54.951Z,3.10
2018-08-20T18:29:23.312Z,2.10
2018-08-20T18:31:55.307Z,3.93
2018-08-20T18:34:24.301Z,2.30
2018-08-20T18:36:52.765Z,2.47
2018-08-20T18:39:21.113Z,2.47
2018-08-20T18:41:59.406Z,2.30
2018-08-20T18:44:27.838Z,5.20
2018-08-20T18:46:56.577Z,4.40
2018-08-20T18:49:25.415Z,4.43
2018-08-20T18:52:00.776Z,2.20
2018-08-20T18:54:36.601Z,3.13
2018-08-20T18:57:05.596Z,3.60
2018-08-20T18:59:35.402Z,4.57
2018-08-20T19:02:03.868Z,3.07
2018-08-20T19:04:41.623Z,4.07
2018-08-20T19:07:11.287Z,3.00
2018-08-20T19:09:40.388Z,2.43
2018-08-20T19:12:09.170Z,5.17
2018-08-20T19:14:37.750Z,5.80
2018-08-20T19:17:16.940Z,2.63
2018-08-20T19:19:47.625Z,3.80
2018-08-20T19:22:21.557Z,4.27
2018-08-20T19:24:50.237Z,3.80
2018-08-20T19:27:18.676Z,5.23
2018-08-20T19:29:46.995Z,6.73
2018-08-20T19:32:15.445Z,3.20
2018-08-20T19:34:43.802Z,5.83
2018-08-20T19:37:12.123Z,3.97
2018-08-20T19:39:40.587Z,2.80
2018-08-20T19:42:08.975Z,3.40
2018-08-20T19:44:37.376Z,2.60
2018-08-20T19:47:05.853Z,8.33
2018-08-20T19:49:34.186Z,3.77
2018-08-20T19:52:02.656Z,4.77
2018-08-20T19:54:31.015Z,3.90
2018-08-20T19:57:15.286Z,3.33
2018-08-20T19:59:43.600Z,4.10
2018-08-20T20:02:12.517Z,3.60
2018-08-20T20:04:40.827Z,3.60
2018-08-20T20:07:09.186Z,6.27
2018-08-20T20:09:38.180Z,6.10
2018-08-20T20:12:06.519Z,5.80
2018-08-20T20:14:39.056Z,6.77
2018-08-20T20:17:07.510Z,5.43
2018-08-20T20:19:35.813Z,6.00
2018-08-20T20:22:04.112Z,6.73
2018-08-20T20:24:32.442Z,5.37
2018-08-20T20:27:00.812Z,7.23
2018-08-20T20:29:29.150Z,4.00
2018-08-20T20:31:57.605Z,4.27
2018-08-20T20:34:26.010Z,4.63
2018-08-20T20:36:54.306Z,4.60
2018-08-20T20:39:22.704Z,7.30
2018-08-20T20:41:51.128Z,5.53
2018-08-20T20:44:19.437Z,6.53
2018-08-20T20:46:47.810Z,4.73
2018-08-20T20:49:16.129Z,4.03
2018-08-20T20:51:44.445Z,4.97
2018-08-20T20:54:12.748Z,5.43
2018-08-20T20:56:41.063Z,8.00
2018-08-20T20:59:09.597Z,8.33
2018-08-20T21:01:37.914Z,9.30
2018-08-20T21:04:07.715Z,7.83
2018-08-20T21:06:37.488Z,7.77
2018-08-20T21:09:08.107Z,6.33
2018-08-20T21:11:36.428Z,5.87
2018-08-20T21:14:04.919Z,5.47
2018-08-20T21:16:33.231Z,8.50
2018-08-20T21:19:03.395Z,5.10
2018-08-20T21:21:32.175Z,6.10
2018-08-20T21:24:00.558Z,6.63
2018-08-20T21:26:28.935Z,7.60
2018-08-20T21:28:57.376Z,5.20
2018-08-20T21:31:26.927Z,6.27
2018-08-20T21:33:59.383Z,6.30
2018-08-20T21:36:27.733Z,7.63
2018-08-20T21:38:56.095Z,8.23
2018-08-20T21:41:28.159Z,7.33
2018-08-20T21:43:56.508Z,6.70
2018-08-20T21:46:24.812Z,6.53
2018-08-20T21:48:53.409Z,8.90
2018-08-20T21:51:29.679Z,13.67
2018-08-20T21:53:58.411Z,9.77
2018-08-20T21:57:03.691Z,9.67
2018-08-20T21:59:31.991Z,11.00
2018-08-20T22:02:00.322Z,11.40
2018-08-20T22:04:30.099Z,11.07
2018-08-20T22:06:59.729Z,10.73
2018-08-20T22:09:28.024Z,13.13
2018-08-20T22:11:57.508Z,11.33
2018-08-20T22:14:26.114Z,12.03
2018-08-20T22:16:54.429Z,10.70
2018-08-20T22:19:22.732Z,14.17
2018-08-20T22:21:51.050Z,11.70
2018-08-20T22:24:19.422Z,10.90
2018-08-20T22:26:53.240Z,12.13
2018-08-20T22:29:21.551Z,10.43
2018-08-20T22:31:55.817Z,14.33
2018-08-20T22:34:26.922Z,12.50
2018-08-20T22:36:59.473Z,12.60
2018-08-20T22:39:27.800Z,13.53
2018-08-20T22:41:56.104Z,14.50
2018-08-20T22:44:24.405Z,16.00
2018-08-20T22:46:52.713Z,15.93
2018-08-20T22:49:21.051Z,12.63
2018-08-20T22:51:49.336Z,13.90
2018-08-20T22:54:17.652Z,11.50
2018-08-20T22:56:45.954Z,10.23
2018-08-20T22:59:14.277Z,12.07
2018-08-20T23:01:42.591Z,11.37
2018-08-20T23:04:10.888Z,9.97
2018-08-20T23:06:39.179Z,8.83
2018-08-20T23:09:24.836Z,7.90
2018-08-20T23:11:53.709Z,9.17
2018-08-20T23:14:22.023Z,10.03
2018-08-20T23:16:51.696Z,7.70
2018-08-20T23:19:20.032Z,8.23
2018-08-20T23:21:49.058Z,8.70
2018-08-20T23:24:17.966Z,7.80
2018-08-20T23:26:46.273Z,7.87
2018-08-20T23:29:14.608Z,9.90
2018-08-20T23:31:42.922Z,8.60
2018-08-20T23:34:13.787Z,9.00
2018-08-20T23:36:42.532Z,8.57
2018-08-20T23:39:18.127Z,8.07
2018-08-20T23:41:46.475Z,10.77
2018-08-20T23:44:16.448Z,10.13
2018-08-20T23:46:47.398Z,9.40
2018-08-20T23:49:15.701Z,8.73
2018-08-20T23:51:44.027Z,10.67
2018-08-20T23:54:12.948Z,10.43
2018-08-20T23:56:41.281Z,9.60
2018-08-20T23:59:09.625Z,9.73
